createdAt,value
2022-10-15T00:01:28.731Z,100642.28
2022-10-15T00:03:58.095Z,100641.50
2022-10-15T00:06:26.290Z,100645.13
2022-10-15T00:08:54.343Z,100646.34
2022-10-15T00:11:24.397Z,100639.19
2022-10-15T00:13:54.174Z,100639.75
2022-10-15T00:16:25.598Z,100638.91
2022-10-15T00:18:56.901Z,100623.41
2022-10-15T00:21:26.613Z,100619.88
2022-10-15T00:23:54.565Z,100620.78
2022-10-15T00:26:24.255Z,100611.38
2022-10-15T00:28:54.459Z,100623.78
2022-10-15T00:31:26.420Z,100615.84
2022-10-15T00:33:58.425Z,100608.78
2022-10-15T00:36:29.455Z,100611.47
2022-10-15T00:38:57.659Z,100610.16
2022-10-15T00:41:29.486Z,100604.91
2022-10-15T00:43:59.460Z,100607.25
2022-10-15T00:46:31.747Z,100610.16
2022-10-15T00:51:40.500Z,100615.91
2022-10-15T00:54:09.800Z,100609.09
2022-10-15T00:56:38.892Z,100611.88
2022-10-15T00:59:08.239Z,100598.16
2022-10-15T01:01:36.499Z,100587.84
2022-10-15T01:04:06.790Z,100582.97
2022-10-15T01:06:37.067Z,100586.63
2022-10-15T01:09:05.633Z,100575.34
2022-10-15T01:11:41.811Z,100576.91
2022-10-15T01:14:26.732Z,100571.75
2022-10-15T01:16:58.953Z,100571.81
2022-10-15T01:19:41.519Z,100565.34
2022-10-15T01:22:17.146Z,100563.66
2022-10-15T01:25:04.880Z,100567.75
2022-10-15T01:27:37.258Z,100565.41
2022-10-15T01:30:30.836Z,100561.28
2022-10-15T01:33:25.937Z,100556.41
2022-10-15T01:36:01.299Z,100555.72
2022-10-15T01:38:44.526Z,100549.00
2022-10-15T01:41:20.460Z,100551.56
2022-10-15T01:44:00.559Z,100553.88
2022-10-15T01:46:54.892Z,100547.25
2022-10-15T01:49:29.079Z,100541.84
2022-10-15T01:51:59.161Z,100541.81
2022-10-15T01:54:28.947Z,100538.84
2022-10-15T01:56:59.847Z,100543.09
2022-10-15T01:59:32.949Z,100538.94
2022-10-15T02:02:02.181Z,100526.38
2022-10-15T02:04:32.227Z,100529.47
2022-10-15T02:07:04.119Z,100528.38
2022-10-15T02:09:43.794Z,100532.03
2022-10-15T02:12:31.849Z,100525.88
2022-10-15T02:15:08.899Z,100523.94
2022-10-15T02:17:43.105Z,100517.16
2022-10-15T02:20:15.622Z,100514.91
2022-10-15T02:22:50.113Z,100520.38
2022-10-15T02:25:22.793Z,100517.78
2022-10-15T02:27:53.660Z,100517.41
2022-10-15T02:30:22.119Z,100518.66
2022-10-15T02:32:55.772Z,100517.53
2022-10-15T02:35:25.011Z,100515.59
2022-10-15T02:37:55.725Z,100509.25
2022-10-15T02:40:27.773Z,100521.59
2022-10-15T02:42:56.578Z,100509.94
2022-10-15T02:45:24.570Z,100508.47
2022-10-15T02:47:53.836Z,100495.72
2022-10-15T02:50:21.713Z,100495.25
2022-10-15T02:52:49.557Z,100504.81
2022-10-15T02:55:18.897Z,100498.72
2022-10-15T02:57:46.763Z,100501.28
2022-10-15T03:00:15.492Z,100495.66
2022-10-15T03:02:43.344Z,100504.59
2022-10-15T03:05:14.164Z,100498.28
2022-10-15T03:07:43.971Z,100493.94
2022-10-15T03:10:12.774Z,100497.16
2022-10-15T03:12:41.112Z,100495.09
2022-10-15T03:15:10.428Z,100505.56
2022-10-15T03:17:38.364Z,100501.91
2022-10-15T03:20:07.123Z,100505.91
2022-10-15T03:22:39.667Z,100496.09
2022-10-15T03:25:08.159Z,100491.78
2022-10-15T03:27:36.054Z,100484.69
2022-10-15T03:30:11.599Z,100479.72
2022-10-15T03:32:40.181Z,100479.56
2022-10-15T03:35:09.510Z,100480.47
2022-10-15T03:37:39.345Z,100472.50
2022-10-15T03:40:13.638Z,100468.78
2022-10-15T03:42:43.007Z,100467.41
2022-10-15T03:45:12.405Z,100469.28
2022-10-15T03:47:40.335Z,100474.19
2022-10-15T03:50:09.578Z,100472.03
2022-10-15T03:52:38.797Z,100480.97
2022-10-15T03:55:08.105Z,100477.47
2022-10-15T03:57:36.122Z,100468.13
2022-10-15T04:00:08.555Z,100474.19
2022-10-15T04:02:42.134Z,100476.97
2022-10-15T04:05:20.997Z,100476.88
2022-10-15T04:07:55.610Z,100480.69
2022-10-15T04:10:24.954Z,100474.44
2022-10-15T04:12:53.662Z,100482.88
2022-10-15T04:15:21.535Z,100477.53
2022-10-15T04:17:55.887Z,100479.59
2022-10-15T04:20:25.264Z,100486.47
2022-10-15T04:22:53.231Z,100483.97
2022-10-15T04:25:22.440Z,100485.81
2022-10-15T04:27:50.222Z,100483.81
2022-10-15T04:30:19.483Z,100486.00
2022-10-15T04:33:08.005Z,100486.63
2022-10-15T04:35:36.031Z,100486.38
2022-10-15T04:38:08.279Z,100486.25
2022-10-15T04:41:15.653Z,100491.09
2022-10-15T04:44:01.334Z,100487.56
2022-10-15T04:46:31.290Z,100494.09
2022-10-15T04:49:03.546Z,100484.50
2022-10-15T04:51:31.385Z,100485.94
2022-10-15T04:54:03.446Z,100486.97
2022-10-15T04:56:34.419Z,100491.53
2022-10-15T04:59:02.381Z,100498.72
2022-10-15T05:01:32.961Z,100492.53
2022-10-15T05:04:07.386Z,100488.66
2022-10-15T05:06:35.224Z,100494.84
2022-10-15T05:09:16.246Z,100486.81
2022-10-15T05:11:50.850Z,100480.19
2022-10-15T05:14:18.721Z,100489.34
2022-10-15T05:17:03.203Z,100491.59
2022-10-15T05:19:35.680Z,100493.91
2022-10-15T05:22:03.833Z,100488.97
2022-10-15T05:24:33.300Z,100493.66
2022-10-15T05:27:13.180Z,100482.56
2022-10-15T05:29:41.094Z,100490.94
2022-10-15T05:32:09.151Z,100487.97
2022-10-15T05:34:37.036Z,100497.72
2022-10-15T05:37:09.858Z,100500.44
2022-10-15T05:39:40.861Z,100492.41
2022-10-15T05:42:10.783Z,100502.97
2022-10-15T05:44:55.439Z,100502.47
2022-10-15T05:47:23.572Z,100506.22
2022-10-15T05:49:57.421Z,100509.06
2022-10-15T05:52:29.626Z,100514.34
2022-10-15T05:55:20.415Z,100510.25
2022-10-15T05:57:48.261Z,100517.66
2022-10-15T06:00:17.733Z,100514.34
2022-10-15T06:05:26.866Z,100525.13
2022-10-15T06:07:54.712Z,100525.22
2022-10-15T06:10:22.532Z,100528.16
2022-10-15T06:12:51.655Z,100533.63
2022-10-15T06:15:21.187Z,100531.72
2022-10-15T06:17:49.007Z,100539.56
2022-10-15T06:20:17.038Z,100537.91
2022-10-15T06:22:44.846Z,100540.91
2022-10-15T06:25:12.758Z,100544.53
2022-10-15T06:27:40.620Z,100545.84
2022-10-15T06:30:10.094Z,100541.50
2022-10-15T06:32:39.351Z,100541.63
2022-10-15T06:35:08.029Z,100538.59
2022-10-15T06:37:35.898Z,100531.56
2022-10-15T06:40:03.793Z,100549.22
2022-10-15T06:42:31.630Z,100546.91
2022-10-15T06:44:59.428Z,100550.28
2022-10-15T06:47:27.298Z,100551.81
2022-10-15T06:49:56.632Z,100555.56
2022-10-15T06:52:25.140Z,100555.72
2022-10-15T06:54:53.080Z,100558.03
2022-10-15T06:57:22.809Z,100559.03
2022-10-15T06:59:50.910Z,100559.53
2022-10-15T07:02:19.386Z,100570.78
2022-10-15T07:04:47.281Z,100570.38
2022-10-15T07:07:20.392Z,100576.03
2022-10-15T07:09:48.185Z,100578.75
2022-10-15T07:12:16.543Z,100588.97
2022-10-15T07:14:44.483Z,100588.97
2022-10-15T07:17:12.321Z,100595.63
2022-10-15T07:19:40.218Z,100598.63
2022-10-15T07:22:08.142Z,100605.88
2022-10-15T07:24:37.465Z,100603.47
2022-10-15T07:27:17.054Z,100599.63
2022-10-15T07:29:46.490Z,100587.78
2022-10-15T07:32:14.547Z,100574.59
2022-10-15T07:34:42.391Z,100579.28
2022-10-15T07:37:10.183Z,100579.28
2022-10-15T07:39:41.042Z,100572.38
2022-10-15T07:42:09.748Z,100580.34
2022-10-15T07:44:37.726Z,100583.16
2022-10-15T07:47:11.267Z,100581.16
2022-10-15T07:49:39.208Z,100578.16
2022-10-15T07:52:08.601Z,100583.59
2022-10-15T07:54:37.076Z,100573.31
2022-10-15T07:57:08.052Z,100571.63
2022-10-15T07:59:36.232Z,100576.22
2022-10-15T08:02:04.663Z,100577.22
2022-10-15T08:04:34.675Z,100580.56
2022-10-15T08:07:03.985Z,100579.41
2022-10-15T08:09:33.588Z,100571.97
2022-10-15T08:12:01.950Z,100579.06
2022-10-15T08:14:31.444Z,100578.59
2022-10-15T08:16:59.224Z,100578.75
2022-10-15T08:19:27.438Z,100586.53
2022-10-15T08:21:55.338Z,100592.94
2022-10-15T08:24:23.171Z,100593.78
2022-10-15T08:26:50.987Z,100589.72
2022-10-15T08:29:18.817Z,100594.63
2022-10-15T08:31:48.051Z,100593.09
2022-10-15T08:34:15.892Z,100597.13
2022-10-15T08:36:43.764Z,100596.09
2022-10-15T08:39:11.702Z,100601.53
2022-10-15T08:41:45.249Z,100596.28
2022-10-15T08:44:27.098Z,100594.66
2022-10-15T08:47:03.877Z,100591.97
2022-10-15T08:49:42.582Z,100590.44
2022-10-15T08:52:21.132Z,100596.19
2022-10-15T08:54:49.216Z,100587.94
2022-10-15T08:57:31.056Z,100594.72
2022-10-15T09:00:03.612Z,100593.81
2022-10-15T09:02:41.839Z,100602.13
2022-10-15T09:05:26.040Z,100601.72
2022-10-15T09:07:58.569Z,100604.03
2022-10-15T09:10:37.360Z,100611.25
2022-10-15T09:13:13.954Z,100608.50
2022-10-15T09:15:51.733Z,100606.47
2022-10-15T09:18:24.742Z,100607.75
2022-10-15T09:20:55.131Z,100607.78
2022-10-15T09:23:26.575Z,100607.94
2022-10-15T09:26:03.077Z,100597.53
2022-10-15T09:28:40.291Z,100604.28
2022-10-15T09:31:11.487Z,100599.75
2022-10-15T09:33:46.476Z,100608.94
2022-10-15T09:36:33.700Z,100613.84
2022-10-15T09:39:11.907Z,100620.22
2022-10-15T09:41:54.686Z,100614.44
2022-10-15T09:44:25.755Z,100613.78
2022-10-15T09:46:53.676Z,100599.59
2022-10-15T09:49:28.014Z,100599.00
2022-10-15T09:52:05.472Z,100606.66
2022-10-15T09:54:42.591Z,100606.88
2022-10-15T09:57:14.458Z,100612.59
2022-10-15T09:59:54.647Z,100613.63
2022-10-15T10:02:24.738Z,100613.38
2022-10-15T10:04:55.417Z,100617.31
2022-10-15T10:07:32.633Z,100609.16
2022-10-15T10:10:03.673Z,100609.03
2022-10-15T10:12:34.715Z,100612.34
2022-10-15T10:15:07.127Z,100626.41
2022-10-15T10:17:35.079Z,100622.56
2022-10-15T10:20:22.434Z,100622.50
2022-10-15T10:22:52.921Z,100620.81
2022-10-15T10:25:30.319Z,100622.78
2022-10-15T10:28:04.803Z,100620.47
2022-10-15T10:30:35.823Z,100623.91
2022-10-15T10:33:04.691Z,100626.38
2022-10-15T10:35:44.875Z,100623.78
2022-10-15T10:38:21.411Z,100620.63
2022-10-15T10:40:53.337Z,100622.19
2022-10-15T10:43:25.647Z,100615.53
2022-10-15T10:45:55.604Z,100627.28
2022-10-15T10:48:26.232Z,100613.59
2022-10-15T10:51:09.358Z,100616.06
2022-10-15T10:53:53.601Z,100617.72
2022-10-15T10:56:23.332Z,100626.03
2022-10-15T10:58:58.184Z,100625.13
2022-10-15T11:01:26.011Z,100616.97
2022-10-15T11:03:53.832Z,100628.28
2022-10-15T11:06:40.748Z,100614.31
2022-10-15T11:09:18.811Z,100611.88
2022-10-15T11:11:59.593Z,100606.66
2022-10-15T11:14:35.049Z,100614.97
2022-10-15T11:17:15.604Z,100616.41
2022-10-15T11:20:12.886Z,100626.03
2022-10-15T11:22:56.796Z,100624.47
2022-10-15T11:25:35.873Z,100613.50
2022-10-15T11:28:28.604Z,100616.81
2022-10-15T11:31:05.088Z,100613.50
2022-10-15T11:34:05.136Z,100604.22
2022-10-15T11:36:45.993Z,100602.09
2022-10-15T11:39:31.558Z,100596.19
2022-10-15T11:42:08.321Z,100592.38
2022-10-15T11:44:52.763Z,100594.09
2022-10-15T11:47:33.665Z,100588.41
2022-10-15T11:50:14.376Z,100592.81
2022-10-15T11:52:55.107Z,100584.38
2022-10-15T11:55:30.196Z,100596.91
2022-10-15T11:58:03.018Z,100584.13
2022-10-15T12:00:35.582Z,100596.50
2022-10-15T12:03:08.596Z,100604.44
2022-10-15T12:05:39.655Z,100599.38
2022-10-15T12:08:12.274Z,100589.19
2022-10-15T12:10:56.378Z,100598.31
2022-10-15T12:13:30.866Z,100587.91
2022-10-15T12:16:10.694Z,100597.44
2022-10-15T12:18:44.553Z,100595.09
2022-10-15T12:21:35.893Z,100592.19
2022-10-15T12:24:07.098Z,100587.78
2022-10-15T12:26:36.569Z,100590.03
2022-10-15T12:29:07.363Z,100594.66
2022-10-15T12:31:48.052Z,100598.56
2022-10-15T12:34:38.332Z,100600.16
2022-10-15T12:37:17.688Z,100593.69
2022-10-15T12:39:52.106Z,100608.03
2022-10-15T12:42:28.669Z,100605.13
2022-10-15T12:44:57.594Z,100603.25
2022-10-15T12:47:56.632Z,100604.56
2022-10-15T12:50:26.452Z,100599.22
2022-10-15T12:53:02.581Z,100599.03
2022-10-15T12:55:33.411Z,100590.13
2022-10-15T12:58:06.201Z,100595.75
2022-10-15T13:00:40.169Z,100597.94
2022-10-15T13:03:43.273Z,100599.88
2022-10-15T13:06:32.961Z,100593.03
2022-10-15T13:09:14.026Z,100594.19
2022-10-15T13:11:45.130Z,100584.03
2022-10-15T13:14:25.369Z,100581.59
2022-10-15T13:16:57.596Z,100589.53
2022-10-15T13:19:29.244Z,100587.84
2022-10-15T13:22:00.285Z,100581.59
2022-10-15T13:24:31.102Z,100583.72
2022-10-15T13:27:01.688Z,100597.44
2022-10-15T13:29:30.887Z,100587.34
2022-10-15T13:31:58.967Z,100588.56
2022-10-15T13:34:29.781Z,100590.81
2022-10-15T13:36:59.423Z,100583.09
2022-10-15T13:42:09.836Z,100588.13
2022-10-15T13:44:39.004Z,100582.97
2022-10-15T13:47:25.860Z,100579.88
2022-10-15T13:50:12.010Z,100590.53
2022-10-15T13:52:42.130Z,100592.41
2022-10-15T13:55:19.462Z,100592.81
2022-10-15T13:57:48.057Z,100589.91
2022-10-15T14:00:27.088Z,100592.81
2022-10-15T14:03:11.210Z,100596.25
2022-10-15T14:05:39.103Z,100588.53
2022-10-15T14:08:07.026Z,100591.75
2022-10-15T14:10:34.912Z,100591.53
2022-10-15T14:13:02.740Z,100582.59
2022-10-15T14:15:49.121Z,100591.25
2022-10-15T14:18:19.652Z,100593.44
2022-10-15T14:20:49.032Z,100592.16
2022-10-15T14:23:22.164Z,100593.00
2022-10-15T14:25:55.523Z,100593.38
2022-10-15T14:28:24.958Z,100589.81
2022-10-15T14:30:55.137Z,100594.13
2022-10-15T14:33:46.863Z,100598.03
2022-10-15T14:36:26.998Z,100603.09
2022-10-15T14:38:56.180Z,100590.47
2022-10-15T14:41:30.309Z,100600.59
2022-10-15T14:44:03.166Z,100602.81
2022-10-15T14:46:39.576Z,100605.56
2022-10-15T14:49:20.013Z,100611.97
2022-10-15T14:51:57.430Z,100604.50
2022-10-15T14:54:31.753Z,100601.69
2022-10-15T14:56:59.826Z,100604.75
2022-10-15T14:59:32.941Z,100602.94
2022-10-15T15:02:04.864Z,100612.34
2022-10-15T15:04:35.445Z,100607.91
2022-10-15T15:07:03.295Z,100619.72
2022-10-15T15:09:31.995Z,100614.63
2022-10-15T15:11:59.939Z,100621.16
2022-10-15T15:14:27.781Z,100616.94
2022-10-15T15:16:55.635Z,100614.78
2022-10-15T15:19:24.908Z,100621.09
2022-10-15T15:21:52.719Z,100615.13
2022-10-15T15:24:20.628Z,100616.84
2022-10-15T15:26:48.406Z,100612.75
2022-10-15T15:29:16.386Z,100614.53
2022-10-15T15:31:45.134Z,100615.88
2022-10-15T15:34:12.969Z,100616.22
2022-10-15T15:36:42.153Z,100628.66
2022-10-15T15:39:10.011Z,100619.13
2022-10-15T15:41:37.855Z,100619.78
2022-10-15T15:44:07.427Z,100622.41
2022-10-15T15:46:35.253Z,100622.47
2022-10-15T15:49:03.107Z,100618.94
2022-10-15T15:51:32.170Z,100621.38
2022-10-15T15:54:04.510Z,100633.59
2022-10-15T15:56:32.989Z,100625.81
2022-10-15T15:59:00.896Z,100629.66
2022-10-15T16:01:28.752Z,100630.28
2022-10-15T16:03:56.691Z,100635.41
2022-10-15T16:06:24.556Z,100632.25
2022-10-15T16:08:53.422Z,100641.56
2022-10-15T16:11:22.669Z,100647.00
2022-10-15T16:13:50.506Z,100639.53
2022-10-15T16:16:18.378Z,100643.97
2022-10-15T16:18:46.246Z,100650.41
2022-10-15T16:21:14.082Z,100648.03
2022-10-15T16:23:42.304Z,100651.84
2022-10-15T16:26:10.089Z,100649.00
2022-10-15T16:28:39.315Z,100649.47
2022-10-15T16:31:17.813Z,100653.84
2022-10-15T16:33:46.377Z,100652.34
2022-10-15T16:36:14.345Z,100652.13
2022-10-15T16:38:42.983Z,100656.06
2022-10-15T16:41:11.655Z,100657.63
2022-10-15T16:43:41.108Z,100661.16
2022-10-15T16:46:09.152Z,100659.63
2022-10-15T16:48:37.110Z,100662.03
2022-10-15T16:51:08.493Z,100667.81
2022-10-15T16:53:37.815Z,100667.31
2022-10-15T16:56:08.133Z,100681.91
2022-10-15T16:58:36.298Z,100681.72
2022-10-15T17:01:08.256Z,100680.84
2022-10-15T17:03:38.033Z,100691.22
2022-10-15T17:06:08.883Z,100695.59
2022-10-15T17:08:39.823Z,100687.31
2022-10-15T17:11:10.582Z,100693.56
2022-10-15T17:13:38.502Z,100696.44
2022-10-15T17:16:13.673Z,100702.38
2022-10-15T17:18:42.210Z,100707.44
2022-10-15T17:21:11.462Z,100701.88
2022-10-15T17:23:39.417Z,100703.72
2022-10-15T17:26:09.692Z,100707.13
2022-10-15T17:28:37.988Z,100704.25
2022-10-15T17:31:07.805Z,100706.25
2022-10-15T17:33:38.251Z,100711.50
2022-10-15T17:36:07.167Z,100718.78
2022-10-15T17:38:35.236Z,100718.25
2022-10-15T17:41:08.013Z,100716.72
2022-10-15T17:43:39.269Z,100717.94
2022-10-15T17:46:11.249Z,100715.56
2022-10-15T17:48:41.158Z,100719.88
2022-10-15T17:51:12.033Z,100713.19
2022-10-15T17:53:40.024Z,100711.31
2022-10-15T17:56:12.273Z,100712.00
2022-10-15T17:58:40.853Z,100705.91
2022-10-15T18:01:13.979Z,100718.19
2022-10-15T18:03:43.354Z,100707.78
2022-10-15T18:06:13.862Z,100712.66
2022-10-15T18:08:41.915Z,100708.09
2022-10-15T18:11:11.325Z,100707.38
2022-10-15T18:13:39.147Z,100717.19
2022-10-15T18:16:07.581Z,100722.25
2022-10-15T18:18:35.469Z,100718.69
2022-10-15T18:21:10.232Z,100719.53
2022-10-15T18:23:38.150Z,100716.50
2022-10-15T18:26:07.796Z,100723.59
2022-10-15T18:28:37.172Z,100717.91
2022-10-15T18:31:07.854Z,100719.03
2022-10-15T18:33:39.854Z,100724.09
2022-10-15T18:36:11.982Z,100734.72
2022-10-15T18:38:40.754Z,100730.50
2022-10-15T18:41:14.233Z,100732.34
2022-10-15T18:43:42.190Z,100733.41
2022-10-15T18:46:10.037Z,100734.06
2022-10-15T18:48:38.172Z,100726.38
2022-10-15T18:51:11.307Z,100735.06
2022-10-15T18:53:40.031Z,100733.13
2022-10-15T18:56:09.055Z,100731.88
2022-10-15T18:58:38.982Z,100736.09
2022-10-15T19:01:11.424Z,100727.41
2022-10-15T19:03:39.377Z,100732.13
2022-10-15T19:06:10.677Z,100726.72
2022-10-15T19:08:38.666Z,100731.88
2022-10-15T19:11:08.523Z,100731.50
2022-10-15T19:13:36.755Z,100727.91
2022-10-15T19:16:05.425Z,100726.72
2022-10-15T19:18:34.076Z,100729.94
2022-10-15T19:21:01.952Z,100729.88
2022-10-15T19:23:31.399Z,100736.91
2022-10-15T19:25:59.515Z,100741.94
2022-10-15T19:28:28.865Z,100739.84
2022-10-15T19:30:57.999Z,100734.44
2022-10-15T19:33:26.843Z,100734.50
2022-10-15T19:35:55.836Z,100742.78
2022-10-15T19:38:24.573Z,100740.44
2022-10-15T19:40:54.419Z,100744.31
2022-10-15T19:43:23.520Z,100739.38
2022-10-15T19:45:51.711Z,100733.50
2022-10-15T19:48:22.924Z,100741.28
2022-10-15T19:50:50.963Z,100730.47
2022-10-15T19:53:18.920Z,100735.84
2022-10-15T19:55:57.952Z,100739.72
2022-10-15T19:58:26.817Z,100735.50
2022-10-15T20:00:55.927Z,100735.88
2022-10-15T20:03:25.213Z,100740.59
2022-10-15T20:05:53.228Z,100754.72
2022-10-15T20:08:21.779Z,100756.59
2022-10-15T20:10:52.128Z,100756.38
2022-10-15T20:13:23.128Z,100763.72
2022-10-15T20:15:53.196Z,100775.72
2022-10-15T20:18:22.472Z,100772.97
2022-10-15T20:20:50.569Z,100783.53
2022-10-15T20:23:19.166Z,100783.44
2022-10-15T20:25:47.449Z,100783.09
2022-10-15T20:28:18.270Z,100775.69
2022-10-15T20:30:49.933Z,100775.56
2022-10-15T20:33:17.919Z,100777.69
2022-10-15T20:35:45.740Z,100776.97
2022-10-15T20:38:13.617Z,100781.25
2022-10-15T20:40:41.929Z,100783.88
2022-10-15T20:43:10.309Z,100780.84
2022-10-15T20:45:44.294Z,100793.44
2022-10-15T20:48:19.732Z,100795.94
2022-10-15T20:50:49.226Z,100802.94
2022-10-15T20:53:18.037Z,100806.34
2022-10-15T20:55:46.029Z,100806.50
2022-10-15T21:00:43.465Z,100804.06
2022-10-15T21:03:11.408Z,100807.25
2022-10-15T21:05:40.650Z,100807.78
2022-10-15T21:08:08.555Z,100811.66
2022-10-15T21:10:36.448Z,100823.13
2022-10-15T21:13:04.418Z,100822.16
2022-10-15T21:15:32.971Z,100823.44
2022-10-15T21:18:00.956Z,100820.13
2022-10-15T21:20:29.052Z,100815.16
2022-10-15T21:22:58.345Z,100821.59
2022-10-15T21:25:26.361Z,100824.06
2022-10-15T21:27:54.302Z,100821.09
2022-10-15T21:30:22.185Z,100822.47
2022-10-15T21:32:50.069Z,100818.03
2022-10-15T21:35:17.970Z,100816.81
2022-10-15T21:37:45.832Z,100816.06
2022-10-15T21:40:15.026Z,100821.56
2022-10-15T21:42:42.983Z,100829.16
2022-10-15T21:45:11.902Z,100827.66
2022-10-15T21:47:39.759Z,100826.53
2022-10-15T21:50:08.256Z,100828.28
2022-10-15T21:52:36.315Z,100824.16
2022-10-15T21:55:04.668Z,100834.19
2022-10-15T21:57:34.593Z,100836.53
2022-10-15T22:00:02.716Z,100834.00
2022-10-15T22:02:32.087Z,100827.31
2022-10-15T22:05:00.014Z,100840.31
2022-10-15T22:07:28.218Z,100849.28
2022-10-15T22:09:56.292Z,100852.25
2022-10-15T22:12:24.532Z,100846.19
2022-10-15T22:14:54.036Z,100851.47
2022-10-15T22:17:21.978Z,100842.50
2022-10-15T22:19:51.328Z,100848.09
2022-10-15T22:22:19.265Z,100843.16
2022-10-15T22:24:47.168Z,100848.91
2022-10-15T22:27:15.066Z,100840.31
2022-10-15T22:29:44.102Z,100854.63
2022-10-15T22:32:13.425Z,100850.66
2022-10-15T22:34:41.342Z,100843.47
2022-10-15T22:37:09.275Z,100838.09
2022-10-15T22:39:37.197Z,100831.28
2022-10-15T22:42:06.326Z,100833.81
2022-10-15T22:44:34.244Z,100830.84
2022-10-15T22:47:02.183Z,100830.41
2022-10-15T22:49:31.404Z,100841.22
2022-10-15T22:51:59.358Z,100842.16
2022-10-15T22:54:27.315Z,100838.41
2022-10-15T22:56:55.185Z,100852.72
2022-10-15T22:59:23.087Z,100854.59
2022-10-15T23:01:50.975Z,100849.38
2022-10-15T23:04:19.116Z,100854.53
2022-10-15T23:06:48.313Z,100856.16
2022-10-15T23:09:17.946Z,100858.44
2022-10-15T23:11:46.559Z,100856.84
2022-10-15T23:14:16.544Z,100862.09
2022-10-15T23:16:46.255Z,100871.25
2022-10-15T23:19:17.354Z,100870.47
2022-10-15T23:21:48.645Z,100871.50
2022-10-15T23:24:18.243Z,100871.19
2022-10-15T23:26:46.222Z,100882.16
2022-10-15T23:29:16.568Z,100872.19
2022-10-15T23:31:44.888Z,100883.88
2022-10-15T23:34:16.100Z,100876.78
2022-10-15T23:36:44.510Z,100875.41
2022-10-15T23:39:15.305Z,100878.19
2022-10-15T23:41:44.899Z,100886.84
2022-10-15T23:44:14.192Z,100887.50
2022-10-15T23:46:42.679Z,100889.56
2022-10-15T23:49:11.081Z,100885.19
2022-10-15T23:51:39.114Z,100879.78
2022-10-15T23:54:16.049Z,100893.13
2022-10-15T23:56:43.997Z,100882.78
2022-10-15T23:59:12.139Z,100891.88
